sensor_id;sensor_type;location;lat;lon;timestamp;P1;durP1;ratioP1;P2;durP2;ratioP2
48871;SDS011;36154;51.674;7.824;2024-03-17T00:01:15;1.38;;;0.63;;
48871;SDS011;36154;51.674;7.824;2024-03-17T00:03:41;0.70;;;0.70;;
48871;SDS011;36154;51.674;7.824;2024-03-17T00:06:06;1.85;;;0.70;;
48871;SDS011;36154;51.674;7.824;2024-03-17T00:08:33;0.60;;;0.60;;
48871;SDS011;36154;51.674;7.824;2024-03-17T00:10:58;0.70;;;0.70;;
48871;SDS011;36154;51.674;7.824;2024-03-17T00:13:24;2.05;;;0.95;;
48871;SDS011;36154;51.674;7.824;2024-03-17T00:15:50;1.00;;;0.90;;
48871;SDS011;36154;51.674;7.824;2024-03-17T00:18:16;0.60;;;0.60;;
48871;SDS011;36154;51.674;7.824;2024-03-17T00:20:43;1.67;;;0.57;;
48871;SDS011;36154;51.674;7.824;2024-03-17T00:23:09;0.50;;;0.50;;
48871;SDS011;36154;51.674;7.824;2024-03-17T00:25:36;0.80;;;0.70;;
48871;SDS011;36154;51.674;7.824;2024-03-17T00:28:02;0.60;;;0.60;;
48871;SDS011;36154;51.674;7.824;2024-03-17T00:30:28;1.27;;;0.70;;
48871;SDS011;36154;51.674;7.824;2024-03-17T00:32:53;0.80;;;0.80;;
48871;SDS011;36154;51.674;7.824;2024-03-17T00:35:18;0.60;;;0.60;;
48871;SDS011;36154;51.674;7.824;2024-03-17T00:37:47;0.50;;;0.50;;
48871;SDS011;36154;51.674;7.824;2024-03-17T00:40:13;1.52;;;0.65;;
48871;SDS011;36154;51.674;7.824;2024-03-17T00:42:39;0.90;;;0.52;;
48871;SDS011;36154;51.674;7.824;2024-03-17T00:45:04;1.38;;;0.70;;
48871;SDS011;36154;51.674;7.824;2024-03-17T00:47:31;1.40;;;0.90;;
48871;SDS011;36154;51.674;7.824;2024-03-17T00:49:56;0.65;;;0.60;;
48871;SDS011;36154;51.674;7.824;2024-03-17T00:52:22;0.68;;;0.60;;
48871;SDS011;36154;51.674;7.824;2024-03-17T00:54:47;0.97;;;0.80;;
48871;SDS011;36154;51.674;7.824;2024-03-17T00:57:13;0.60;;;0.57;;
48871;SDS011;36154;51.674;7.824;2024-03-17T00:59:38;0.63;;;0.63;;
48871;SDS011;36154;51.674;7.824;2024-03-17T01:02:04;0.70;;;0.70;;
48871;SDS011;36154;51.674;7.824;2024-03-17T01:04:29;0.57;;;0.57;;
48871;SDS011;36154;51.674;7.824;2024-03-17T01:06:55;0.60;;;0.60;;
48871;SDS011;36154;51.674;7.824;2024-03-17T01:09:20;0.60;;;0.60;;
48871;SDS011;36154;51.674;7.824;2024-03-17T01:11:45;0.70;;;0.70;;
48871;SDS011;36154;51.674;7.824;2024-03-17T01:14:11;0.50;;;0.50;;
48871;SDS011;36154;51.674;7.824;2024-03-17T01:16:36;0.63;;;0.60;;
48871;SDS011;36154;51.674;7.824;2024-03-17T01:19:01;0.60;;;0.60;;
48871;SDS011;36154;51.674;7.824;2024-03-17T01:21:26;0.57;;;0.57;;
48871;SDS011;36154;51.674;7.824;2024-03-17T01:23:52;0.63;;;0.63;;
48871;SDS011;36154;51.674;7.824;2024-03-17T01:26:18;0.45;;;0.45;;
48871;SDS011;36154;51.674;7.824;2024-03-17T01:28:43;0.70;;;0.70;;
48871;SDS011;36154;51.674;7.824;2024-03-17T01:31:08;0.60;;;0.60;;
48871;SDS011;36154;51.674;7.824;2024-03-17T01:33:34;0.60;;;0.47;;
48871;SDS011;36154;51.674;7.824;2024-03-17T01:35:59;1.15;;;0.80;;
48871;SDS011;36154;51.674;7.824;2024-03-17T01:38:25;0.50;;;0.50;;
48871;SDS011;36154;51.674;7.824;2024-03-17T01:40:50;0.63;;;0.55;;
48871;SDS011;36154;51.674;7.824;2024-03-17T01:43:15;0.73;;;0.73;;
48871;SDS011;36154;51.674;7.824;2024-03-17T01:45:41;0.60;;;0.60;;
48871;SDS011;36154;51.674;7.824;2024-03-17T01:48:08;0.40;;;0.40;;
48871;SDS011;36154;51.674;7.824;2024-03-17T01:50:40;0.40;;;0.40;;
48871;SDS011;36154;51.674;7.824;2024-03-17T01:53:06;0.68;;;0.55;;
48871;SDS011;36154;51.674;7.824;2024-03-17T01:55:37;1.02;;;0.52;;
48871;SDS011;36154;51.674;7.824;2024-03-17T01:58:03;0.50;;;0.50;;
48871;SDS011;36154;51.674;7.824;2024-03-17T02:00:32;0.60;;;0.60;;
48871;SDS011;36154;51.674;7.824;2024-03-17T02:02:59;0.70;;;0.70;;
48871;SDS011;36154;51.674;7.824;2024-03-17T02:05:24;0.45;;;0.45;;
48871;SDS011;36154;51.674;7.824;2024-03-17T02:07:50;0.50;;;0.50;;
48871;SDS011;36154;51.674;7.824;2024-03-17T02:10:15;0.55;;;0.55;;
48871;SDS011;36154;51.674;7.824;2024-03-17T02:12:40;0.68;;;0.50;;
48871;SDS011;36154;51.674;7.824;2024-03-17T02:15:06;1.33;;;0.60;;
48871;SDS011;36154;51.674;7.824;2024-03-17T02:17:32;0.50;;;0.50;;
48871;SDS011;36154;51.674;7.824;2024-03-17T02:19:58;0.40;;;0.40;;
48871;SDS011;36154;51.674;7.824;2024-03-17T02:22:24;0.50;;;0.50;;
48871;SDS011;36154;51.674;7.824;2024-03-17T02:24:49;0.68;;;0.68;;
48871;SDS011;36154;51.674;7.824;2024-03-17T02:27:14;0.50;;;0.50;;
48871;SDS011;36154;51.674;7.824;2024-03-17T02:29:40;0.60;;;0.60;;
48871;SDS011;36154;51.674;7.824;2024-03-17T02:32:08;0.40;;;0.40;;
48871;SDS011;36154;51.674;7.824;2024-03-17T02:34:34;0.40;;;0.40;;
48871;SDS011;36154;51.674;7.824;2024-03-17T02:37:00;0.40;;;0.40;;
48871;SDS011;36154;51.674;7.824;2024-03-17T02:39:26;0.43;;;0.43;;
48871;SDS011;36154;51.674;7.824;2024-03-17T02:42:01;0.50;;;0.50;;
48871;SDS011;36154;51.674;7.824;2024-03-17T02:44:27;0.50;;;0.50;;
48871;SDS011;36154;51.674;7.824;2024-03-17T02:46:55;0.40;;;0.40;;
48871;SDS011;36154;51.674;7.824;2024-03-17T02:49:20;0.40;;;0.40;;
48871;SDS011;36154;51.674;7.824;2024-03-17T02:51:47;0.50;;;0.50;;
48871;SDS011;36154;51.674;7.824;2024-03-17T02:54:12;0.40;;;0.40;;
48871;SDS011;36154;51.674;7.824;2024-03-17T02:56:37;0.65;;;0.50;;
48871;SDS011;36154;51.674;7.824;2024-03-17T02:59:02;0.50;;;0.50;;
48871;SDS011;36154;51.674;7.824;2024-03-17T03:01:28;1.43;;;0.60;;
48871;SDS011;36154;51.674;7.824;2024-03-17T03:03:53;0.55;;;0.40;;
48871;SDS011;36154;51.674;7.824;2024-03-17T03:06:18;0.50;;;0.50;;
48871;SDS011;36154;51.674;7.824;2024-03-17T03:08:44;0.43;;;0.43;;
48871;SDS011;36154;51.674;7.824;2024-03-17T03:11:13;0.40;;;0.40;;
48871;SDS011;36154;51.674;7.824;2024-03-17T03:13:39;0.73;;;0.52;;
48871;SDS011;36154;51.674;7.824;2024-03-17T03:16:06;0.52;;;0.45;;
48871;SDS011;36154;51.674;7.824;2024-03-17T03:18:36;1.77;;;0.50;;
48871;SDS011;36154;51.674;7.824;2024-03-17T03:21:02;0.30;;;0.30;;
48871;SDS011;36154;51.674;7.824;2024-03-17T03:23:28;0.77;;;0.60;;
48871;SDS011;36154;51.674;7.824;2024-03-17T03:25:56;0.30;;;0.30;;
48871;SDS011;36154;51.674;7.824;2024-03-17T03:28:22;0.40;;;0.40;;
48871;SDS011;36154;51.674;7.824;2024-03-17T03:30:48;0.40;;;0.40;;
48871;SDS011;36154;51.674;7.824;2024-03-17T03:33:13;0.30;;;0.30;;
48871;SDS011;36154;51.674;7.824;2024-03-17T03:35:38;0.30;;;0.30;;
48871;SDS011;36154;51.674;7.824;2024-03-17T03:38:04;0.73;;;0.47;;
48871;SDS011;36154;51.674;7.824;2024-03-17T03:40:30;0.30;;;0.30;;
48871;SDS011;36154;51.674;7.824;2024-03-17T03:42:55;0.30;;;0.30;;
48871;SDS011;36154;51.674;7.824;2024-03-17T03:45:21;0.35;;;0.35;;
48871;SDS011;36154;51.674;7.824;2024-03-17T03:47:46;0.50;;;0.47;;
48871;SDS011;36154;51.674;7.824;2024-03-17T03:50:16;0.30;;;0.30;;
48871;SDS011;36154;51.674;7.824;2024-03-17T03:52:42;1.13;;;0.35;;
48871;SDS011;36154;51.674;7.824;2024-03-17T03:55:08;0.20;;;0.20;;
48871;SDS011;36154;51.674;7.824;2024-03-17T03:57:39;0.45;;;0.45;;
48871;SDS011;36154;51.674;7.824;2024-03-17T04:00:05;0.40;;;0.40;;
48871;SDS011;36154;51.674;7.824;2024-03-17T04:02:37;0.43;;;0.40;;
48871;SDS011;36154;51.674;7.824;2024-03-17T04:05:06;0.30;;;0.30;;
48871;SDS011;36154;51.674;7.824;2024-03-17T04:07:32;0.30;;;0.30;;
48871;SDS011;36154;51.674;7.824;2024-03-17T04:09:57;0.73;;;0.20;;
48871;SDS011;36154;51.674;7.824;2024-03-17T04:12:23;0.32;;;0.32;;
48871;SDS011;36154;51.674;7.824;2024-03-17T04:14:49;0.30;;;0.30;;
48871;SDS011;36154;51.674;7.824;2024-03-17T04:17:21;0.40;;;0.40;;
48871;SDS011;36154;51.674;7.824;2024-03-17T04:19:47;0.40;;;0.40;;
48871;SDS011;36154;51.674;7.824;2024-03-17T04:22:13;0.30;;;0.30;;
48871;SDS011;36154;51.674;7.824;2024-03-17T04:24:39;0.40;;;0.40;;
48871;SDS011;36154;51.674;7.824;2024-03-17T04:27:04;0.40;;;0.40;;
48871;SDS011;36154;51.674;7.824;2024-03-17T04:29:30;0.40;;;0.40;;
48871;SDS011;36154;51.674;7.824;2024-03-17T04:31:55;0.32;;;0.32;;
48871;SDS011;36154;51.674;7.824;2024-03-17T04:34:20;0.38;;;0.30;;
48871;SDS011;36154;51.674;7.824;2024-03-17T04:36:46;0.30;;;0.30;;
48871;SDS011;36154;51.674;7.824;2024-03-17T04:39:11;0.30;;;0.30;;
48871;SDS011;36154;51.674;7.824;2024-03-17T04:41:37;0.40;;;0.40;;
48871;SDS011;36154;51.674;7.824;2024-03-17T04:44:04;0.45;;;0.45;;
48871;SDS011;36154;51.674;7.824;2024-03-17T04:46:31;0.40;;;0.35;;
48871;SDS011;36154;51.674;7.824;2024-03-17T04:48:57;0.20;;;0.20;;
48871;SDS011;36154;51.674;7.824;2024-03-17T04:51:22;0.35;;;0.30;;
48871;SDS011;36154;51.674;7.824;2024-03-17T04:53:47;0.40;;;0.35;;
48871;SDS011;36154;51.674;7.824;2024-03-17T04:56:13;0.50;;;0.40;;
48871;SDS011;36154;51.674;7.824;2024-03-17T04:58:38;0.20;;;0.20;;
48871;SDS011;36154;51.674;7.824;2024-03-17T05:01:09;0.30;;;0.30;;
48871;SDS011;36154;51.674;7.824;2024-03-17T05:03:35;0.38;;;0.38;;
48871;SDS011;36154;51.674;7.824;2024-03-17T05:06:01;0.28;;;0.28;;
48871;SDS011;36154;51.674;7.824;2024-03-17T05:08:27;0.30;;;0.30;;
48871;SDS011;36154;51.674;7.824;2024-03-17T05:10:57;0.88;;;0.20;;
48871;SDS011;36154;51.674;7.824;2024-03-17T05:13:22;0.30;;;0.30;;
48871;SDS011;36154;51.674;7.824;2024-03-17T05:15:48;0.43;;;0.40;;
48871;SDS011;36154;51.674;7.824;2024-03-17T05:18:13;0.50;;;0.30;;
48871;SDS011;36154;51.674;7.824;2024-03-17T05:20:38;0.40;;;0.30;;
48871;SDS011;36154;51.674;7.824;2024-03-17T05:23:03;0.40;;;0.40;;
48871;SDS011;36154;51.674;7.824;2024-03-17T05:25:29;0.32;;;0.32;;
48871;SDS011;36154;51.674;7.824;2024-03-17T05:27:54;0.40;;;0.40;;
48871;SDS011;36154;51.674;7.824;2024-03-17T05:30:20;0.63;;;0.30;;
48871;SDS011;36154;51.674;7.824;2024-03-17T05:32:45;0.40;;;0.40;;
48871;SDS011;36154;51.674;7.824;2024-03-17T05:35:10;0.30;;;0.30;;
48871;SDS011;36154;51.674;7.824;2024-03-17T05:37:36;0.30;;;0.30;;
48871;SDS011;36154;51.674;7.824;2024-03-17T05:40:01;0.40;;;0.40;;
48871;SDS011;36154;51.674;7.824;2024-03-17T05:42:27;0.30;;;0.30;;
48871;SDS011;36154;51.674;7.824;2024-03-17T05:44:53;0.50;;;0.30;;
48871;SDS011;36154;51.674;7.824;2024-03-17T05:47:18;0.30;;;0.30;;
48871;SDS011;36154;51.674;7.824;2024-03-17T05:49:44;0.40;;;0.40;;
48871;SDS011;36154;51.674;7.824;2024-03-17T05:52:09;0.20;;;0.20;;
48871;SDS011;36154;51.674;7.824;2024-03-17T05:54:35;0.35;;;0.35;;
48871;SDS011;36154;51.674;7.824;2024-03-17T05:57:00;0.30;;;0.30;;
48871;SDS011;36154;51.674;7.824;2024-03-17T05:59:29;0.30;;;0.30;;
48871;SDS011;36154;51.674;7.824;2024-03-17T06:01:54;0.30;;;0.30;;
48871;SDS011;36154;51.674;7.824;2024-03-17T06:04:19;0.20;;;0.20;;
48871;SDS011;36154;51.674;7.824;2024-03-17T06:06:45;0.30;;;0.30;;
48871;SDS011;36154;51.674;7.824;2024-03-17T06:09:10;0.20;;;0.20;;
48871;SDS011;36154;51.674;7.824;2024-03-17T06:11:35;0.50;;;0.40;;
48871;SDS011;36154;51.674;7.824;2024-03-17T06:14:01;0.30;;;0.30;;
48871;SDS011;36154;51.674;7.824;2024-03-17T06:16:29;0.20;;;0.20;;
48871;SDS011;36154;51.674;7.824;2024-03-17T06:18:55;0.22;;;0.22;;
48871;SDS011;36154;51.674;7.824;2024-03-17T06:21:21;0.20;;;0.20;;
48871;SDS011;36154;51.674;7.824;2024-03-17T06:23:46;0.30;;;0.30;;
48871;SDS011;36154;51.674;7.824;2024-03-17T06:26:12;0.30;;;0.30;;
48871;SDS011;36154;51.674;7.824;2024-03-17T06:28:37;0.30;;;0.30;;
48871;SDS011;36154;51.674;7.824;2024-03-17T06:31:03;0.30;;;0.20;;
48871;SDS011;36154;51.674;7.824;2024-03-17T06:33:32;0.30;;;0.30;;
48871;SDS011;36154;51.674;7.824;2024-03-17T06:35:57;0.20;;;0.20;;
48871;SDS011;36154;51.674;7.824;2024-03-17T06:38:23;0.50;;;0.47;;
48871;SDS011;36154;51.674;7.824;2024-03-17T06:40:49;0.35;;;0.32;;
48871;SDS011;36154;51.674;7.824;2024-03-17T06:43:15;0.30;;;0.30;;
48871;SDS011;36154;51.674;7.824;2024-03-17T06:45:41;0.30;;;0.30;;
48871;SDS011;36154;51.674;7.824;2024-03-17T06:48:06;0.35;;;0.30;;
48871;SDS011;36154;51.674;7.824;2024-03-17T06:50:32;0.30;;;0.30;;
48871;SDS011;36154;51.674;7.824;2024-03-17T06:52:57;0.30;;;0.30;;
48871;SDS011;36154;51.674;7.824;2024-03-17T06:55:22;0.30;;;0.30;;
48871;SDS011;36154;51.674;7.824;2024-03-17T06:57:47;0.40;;;0.33;;
48871;SDS011;36154;51.674;7.824;2024-03-17T07:00:13;0.30;;;0.20;;
48871;SDS011;36154;51.674;7.824;2024-03-17T07:02:43;0.30;;;0.30;;
48871;SDS011;36154;51.674;7.824;2024-03-17T07:05:12;0.30;;;0.30;;
48871;SDS011;36154;51.674;7.824;2024-03-17T07:07:41;0.20;;;0.20;;
48871;SDS011;36154;51.674;7.824;2024-03-17T07:10:07;0.25;;;0.25;;
48871;SDS011;36154;51.674;7.824;2024-03-17T07:12:33;0.28;;;0.28;;
48871;SDS011;36154;51.674;7.824;2024-03-17T07:14:59;0.40;;;0.20;;
48871;SDS011;36154;51.674;7.824;2024-03-17T07:17:24;0.30;;;0.30;;
48871;SDS011;36154;51.674;7.824;2024-03-17T07:19:49;0.30;;;0.30;;
48871;SDS011;36154;51.674;7.824;2024-03-17T07:22:14;0.30;;;0.30;;
48871;SDS011;36154;51.674;7.824;2024-03-17T07:24:40;0.30;;;0.30;;
48871;SDS011;36154;51.674;7.824;2024-03-17T07:27:05;0.30;;;0.30;;
48871;SDS011;36154;51.674;7.824;2024-03-17T07:29:33;0.28;;;0.28;;
48871;SDS011;36154;51.674;7.824;2024-03-17T07:31:59;0.20;;;0.20;;
48871;SDS011;36154;51.674;7.824;2024-03-17T07:34:24;0.30;;;0.30;;
48871;SDS011;36154;51.674;7.824;2024-03-17T07:36:49;0.28;;;0.28;;
48871;SDS011;36154;51.674;7.824;2024-03-17T07:39:15;0.22;;;0.22;;
48871;SDS011;36154;51.674;7.824;2024-03-17T07:41:41;0.30;;;0.30;;
48871;SDS011;36154;51.674;7.824;2024-03-17T07:44:06;0.20;;;0.20;;
48871;SDS011;36154;51.674;7.824;2024-03-17T07:46:32;0.60;;;0.40;;
48871;SDS011;36154;51.674;7.824;2024-03-17T07:48:57;0.10;;;0.10;;
48871;SDS011;36154;51.674;7.824;2024-03-17T07:51:22;0.30;;;0.30;;
48871;SDS011;36154;51.674;7.824;2024-03-17T07:53:48;0.90;;;0.30;;
48871;SDS011;36154;51.674;7.824;2024-03-17T07:56:13;0.30;;;0.30;;
48871;SDS011;36154;51.674;7.824;2024-03-17T07:58:40;0.40;;;0.40;;
48871;SDS011;36154;51.674;7.824;2024-03-17T08:01:09;0.30;;;0.30;;
48871;SDS011;36154;51.674;7.824;2024-03-17T08:03:37;0.30;;;0.30;;
48871;SDS011;36154;51.674;7.824;2024-03-17T08:06:05;0.40;;;0.30;;
48871;SDS011;36154;51.674;7.824;2024-03-17T08:08:32;0.20;;;0.20;;
48871;SDS011;36154;51.674;7.824;2024-03-17T08:10:58;0.30;;;0.30;;
48871;SDS011;36154;51.674;7.824;2024-03-17T08:13:24;0.20;;;0.20;;
48871;SDS011;36154;51.674;7.824;2024-03-17T08:15:59;0.30;;;0.30;;
48871;SDS011;36154;51.674;7.824;2024-03-17T08:18:25;0.28;;;0.28;;
48871;SDS011;36154;51.674;7.824;2024-03-17T08:20:52;0.30;;;0.30;;
48871;SDS011;36154;51.674;7.824;2024-03-17T08:23:18;0.40;;;0.40;;
48871;SDS011;36154;51.674;7.824;2024-03-17T08:25:51;0.93;;;0.30;;
48871;SDS011;36154;51.674;7.824;2024-03-17T08:28:19;0.30;;;0.30;;
48871;SDS011;36154;51.674;7.824;2024-03-17T08:30:58;0.30;;;0.30;;
48871;SDS011;36154;51.674;7.824;2024-03-17T08:33:25;0.20;;;0.20;;
48871;SDS011;36154;51.674;7.824;2024-03-17T08:35:57;0.40;;;0.40;;
48871;SDS011;36154;51.674;7.824;2024-03-17T08:38:28;0.20;;;0.20;;
48871;SDS011;36154;51.674;7.824;2024-03-17T08:40:57;0.30;;;0.30;;
48871;SDS011;36154;51.674;7.824;2024-03-17T08:43:26;0.30;;;0.30;;
48871;SDS011;36154;51.674;7.824;2024-03-17T08:45:55;0.35;;;0.35;;
48871;SDS011;36154;51.674;7.824;2024-03-17T08:48:23;0.20;;;0.20;;
48871;SDS011;36154;51.674;7.824;2024-03-17T08:50:54;0.47;;;0.30;;
48871;SDS011;36154;51.674;7.824;2024-03-17T08:53:20;0.30;;;0.30;;
48871;SDS011;36154;51.674;7.824;2024-03-17T08:55:46;0.22;;;0.20;;
48871;SDS011;36154;51.674;7.824;2024-03-17T08:58:12;0.30;;;0.30;;
48871;SDS011;36154;51.674;7.824;2024-03-17T09:00:38;0.20;;;0.20;;
48871;SDS011;36154;51.674;7.824;2024-03-17T09:03:03;0.20;;;0.20;;
48871;SDS011;36154;51.674;7.824;2024-03-17T09:05:29;0.25;;;0.22;;
48871;SDS011;36154;51.674;7.824;2024-03-17T09:07:54;0.30;;;0.30;;
48871;SDS011;36154;51.674;7.824;2024-03-17T09:10:20;0.28;;;0.20;;
48871;SDS011;36154;51.674;7.824;2024-03-17T09:12:45;0.30;;;0.30;;
48871;SDS011;36154;51.674;7.824;2024-03-17T09:15:12;0.68;;;0.20;;
48871;SDS011;36154;51.674;7.824;2024-03-17T09:17:38;0.20;;;0.20;;
48871;SDS011;36154;51.674;7.824;2024-03-17T09:20:04;0.22;;;0.22;;
48871;SDS011;36154;51.674;7.824;2024-03-17T09:22:30;0.20;;;0.20;;
48871;SDS011;36154;51.674;7.824;2024-03-17T09:24:55;0.40;;;0.13;;
48871;SDS011;36154;51.674;7.824;2024-03-17T09:27:20;0.47;;;0.20;;
48871;SDS011;36154;51.674;7.824;2024-03-17T09:29:47;3.15;;;0.35;;
48871;SDS011;36154;51.674;7.824;2024-03-17T09:32:13;0.20;;;0.20;;
48871;SDS011;36154;51.674;7.824;2024-03-17T09:34:43;0.30;;;0.30;;
48871;SDS011;36154;51.674;7.824;2024-03-17T09:37:17;0.20;;;0.20;;
48871;SDS011;36154;51.674;7.824;2024-03-17T09:39:42;0.30;;;0.30;;
48871;SDS011;36154;51.674;7.824;2024-03-17T09:42:13;0.20;;;0.20;;
48871;SDS011;36154;51.674;7.824;2024-03-17T09:44:43;0.63;;;0.40;;
48871;SDS011;36154;51.674;7.824;2024-03-17T09:47:10;0.30;;;0.30;;
48871;SDS011;36154;51.674;7.824;2024-03-17T09:49:43;0.20;;;0.20;;
48871;SDS011;36154;51.674;7.824;2024-03-17T09:52:09;0.30;;;0.30;;
48871;SDS011;36154;51.674;7.824;2024-03-17T09:54:44;0.40;;;0.25;;
48871;SDS011;36154;51.674;7.824;2024-03-17T09:57:09;1.88;;;0.30;;
48871;SDS011;36154;51.674;7.824;2024-03-17T09:59:41;1.95;;;0.35;;
48871;SDS011;36154;51.674;7.824;2024-03-17T10:02:08;0.20;;;0.20;;
48871;SDS011;36154;51.674;7.824;2024-03-17T10:04:41;0.30;;;0.30;;
48871;SDS011;36154;51.674;7.824;2024-03-17T10:07:06;1.90;;;0.20;;
48871;SDS011;36154;51.674;7.824;2024-03-17T10:09:31;1.40;;;0.30;;
48871;SDS011;36154;51.674;7.824;2024-03-17T10:11:57;0.30;;;0.30;;
48871;SDS011;36154;51.674;7.824;2024-03-17T10:14:22;0.80;;;0.52;;
48871;SDS011;36154;51.674;7.824;2024-03-17T10:16:48;2.10;;;0.40;;
48871;SDS011;36154;51.674;7.824;2024-03-17T10:19:23;4.20;;;1.08;;
48871;SDS011;36154;51.674;7.824;2024-03-17T10:21:50;5.53;;;1.10;;
48871;SDS011;36154;51.674;7.824;2024-03-17T10:24:24;4.72;;;1.05;;
48871;SDS011;36154;51.674;7.824;2024-03-17T10:32:04;10.27;;;0.57;;
48871;SDS011;36154;51.674;7.824;2024-03-17T10:34:41;1.05;;;0.50;;
48871;SDS011;36154;51.674;7.824;2024-03-17T10:39:45;3.63;;;0.57;;
48871;SDS011;36154;51.674;7.824;2024-03-17T10:42:12;1.48;;;0.70;;
48871;SDS011;36154;51.674;7.824;2024-03-17T10:44:42;3.17;;;0.52;;
48871;SDS011;36154;51.674;7.824;2024-03-17T10:47:14;3.30;;;0.68;;
48871;SDS011;36154;51.674;7.824;2024-03-17T10:49:45;1.88;;;0.52;;
48871;SDS011;36154;51.674;7.824;2024-03-17T10:52:15;1.95;;;0.65;;
48871;SDS011;36154;51.674;7.824;2024-03-17T10:54:49;4.72;;;0.77;;
48871;SDS011;36154;51.674;7.824;2024-03-17T10:57:37;1.95;;;0.80;;
48871;SDS011;36154;51.674;7.824;2024-03-17T11:00:13;1.58;;;0.50;;
48871;SDS011;36154;51.674;7.824;2024-03-17T11:02:42;0.80;;;0.50;;
48871;SDS011;36154;51.674;7.824;2024-03-17T11:05:11;1.63;;;0.60;;
48871;SDS011;36154;51.674;7.824;2024-03-17T11:07:41;33.22;;;5.72;;
48871;SDS011;36154;51.674;7.824;2024-03-17T11:10:14;7.38;;;1.77;;
48871;SDS011;36154;51.674;7.824;2024-03-17T11:12:48;25.90;;;4.63;;
48871;SDS011;36154;51.674;7.824;2024-03-17T11:17:44;17.08;;;3.72;;
48871;SDS011;36154;51.674;7.824;2024-03-17T11:20:17;15.00;;;3.63;;
48871;SDS011;36154;51.674;7.824;2024-03-17T11:22:50;18.70;;;3.92;;
48871;SDS011;36154;51.674;7.824;2024-03-17T11:38:57;5.63;;;2.00;;
48871;SDS011;36154;51.674;7.824;2024-03-17T11:41:44;8.63;;;2.55;;
48871;SDS011;36154;51.674;7.824;2024-03-17T11:49:35;9.88;;;2.22;;
48871;SDS011;36154;51.674;7.824;2024-03-17T11:52:25;3.88;;;1.80;;
48871;SDS011;36154;51.674;7.824;2024-03-17T11:54:49;5.57;;;1.88;;
48871;SDS011;36154;51.674;7.824;2024-03-17T11:57:20;8.40;;;2.07;;
48871;SDS011;36154;51.674;7.824;2024-03-17T11:59:50;4.80;;;1.83;;
48871;SDS011;36154;51.674;7.824;2024-03-17T12:02:18;4.28;;;1.88;;
48871;SDS011;36154;51.674;7.824;2024-03-17T12:05:04;8.27;;;2.03;;
48871;SDS011;36154;51.674;7.824;2024-03-17T12:07:30;5.57;;;2.22;;
48871;SDS011;36154;51.674;7.824;2024-03-17T12:09:56;5.25;;;2.03;;
48871;SDS011;36154;51.674;7.824;2024-03-17T12:12:23;6.90;;;2.15;;
48871;SDS011;36154;51.674;7.824;2024-03-17T12:14:51;6.50;;;1.50;;
48871;SDS011;36154;51.674;7.824;2024-03-17T12:17:22;3.45;;;1.23;;
48871;SDS011;36154;51.674;7.824;2024-03-17T12:19:49;2.07;;;1.20;;
48871;SDS011;36154;51.674;7.824;2024-03-17T12:22:18;2.85;;;1.30;;
48871;SDS011;36154;51.674;7.824;2024-03-17T12:24:49;2.30;;;1.40;;
48871;SDS011;36154;51.674;7.824;2024-03-17T12:27:24;2.13;;;1.10;;
48871;SDS011;36154;51.674;7.824;2024-03-17T12:29:51;2.17;;;1.33;;
48871;SDS011;36154;51.674;7.824;2024-03-17T12:32:21;1.98;;;1.00;;
48871;SDS011;36154;51.674;7.824;2024-03-17T12:34:49;2.60;;;1.10;;
48871;SDS011;36154;51.674;7.824;2024-03-17T12:37:19;1.80;;;1.20;;
48871;SDS011;36154;51.674;7.824;2024-03-17T12:39:46;2.65;;;1.30;;
48871;SDS011;36154;51.674;7.824;2024-03-17T12:44:47;5.05;;;1.63;;
48871;SDS011;36154;51.674;7.824;2024-03-17T12:47:14;3.30;;;1.40;;
48871;SDS011;36154;51.674;7.824;2024-03-17T12:49:48;3.40;;;1.48;;
48871;SDS011;36154;51.674;7.824;2024-03-17T12:52:51;4.50;;;1.35;;
48871;SDS011;36154;51.674;7.824;2024-03-17T12:55:18;3.08;;;1.30;;
48871;SDS011;36154;51.674;7.824;2024-03-17T13:00:46;3.80;;;1.27;;
48871;SDS011;36154;51.674;7.824;2024-03-17T13:03:23;4.47;;;1.35;;
48871;SDS011;36154;51.674;7.824;2024-03-17T13:05:49;2.72;;;1.27;;
48871;SDS011;36154;51.674;7.824;2024-03-17T13:08:15;2.80;;;1.05;;
48871;SDS011;36154;51.674;7.824;2024-03-17T13:10:40;2.42;;;1.30;;
48871;SDS011;36154;51.674;7.824;2024-03-17T13:13:07;3.42;;;1.15;;
48871;SDS011;36154;51.674;7.824;2024-03-17T13:15:34;3.90;;;1.42;;
48871;SDS011;36154;51.674;7.824;2024-03-17T13:18:03;1.60;;;1.00;;
48871;SDS011;36154;51.674;7.824;2024-03-17T13:20:30;2.25;;;1.05;;
48871;SDS011;36154;51.674;7.824;2024-03-17T13:22:56;2.90;;;0.95;;
48871;SDS011;36154;51.674;7.824;2024-03-17T13:25:23;2.55;;;1.27;;
48871;SDS011;36154;51.674;7.824;2024-03-17T13:27:52;1.00;;;0.88;;
48871;SDS011;36154;51.674;7.824;2024-03-17T13:30:19;1.33;;;0.77;;
48871;SDS011;36154;51.674;7.824;2024-03-17T13:32:47;1.48;;;0.95;;
48871;SDS011;36154;51.674;7.824;2024-03-17T13:35:16;2.15;;;0.73;;
48871;SDS011;36154;51.674;7.824;2024-03-17T13:37:45;3.80;;;0.93;;
48871;SDS011;36154;51.674;7.824;2024-03-17T13:40:12;3.70;;;0.90;;
48871;SDS011;36154;51.674;7.824;2024-03-17T13:42:41;4.82;;;1.48;;
48871;SDS011;36154;51.674;7.824;2024-03-17T13:45:16;4.03;;;1.15;;
48871;SDS011;36154;51.674;7.824;2024-03-17T13:47:56;3.42;;;1.52;;
48871;SDS011;36154;51.674;7.824;2024-03-17T13:50:23;4.75;;;1.60;;
48871;SDS011;36154;51.674;7.824;2024-03-17T13:52:49;8.10;;;2.17;;
48871;SDS011;36154;51.674;7.824;2024-03-17T13:55:16;6.55;;;1.83;;
48871;SDS011;36154;51.674;7.824;2024-03-17T13:57:42;7.10;;;2.45;;
48871;SDS011;36154;51.674;7.824;2024-03-17T14:00:09;4.47;;;3.20;;
48871;SDS011;36154;51.674;7.824;2024-03-17T14:02:35;6.82;;;2.40;;
48871;SDS011;36154;51.674;7.824;2024-03-17T14:05:00;3.47;;;2.00;;
48871;SDS011;36154;51.674;7.824;2024-03-17T14:07:27;4.20;;;1.90;;
48871;SDS011;36154;51.674;7.824;2024-03-17T14:09:52;4.15;;;2.00;;
48871;SDS011;36154;51.674;7.824;2024-03-17T14:12:17;2.35;;;1.80;;
48871;SDS011;36154;51.674;7.824;2024-03-17T14:14:42;4.30;;;1.80;;
48871;SDS011;36154;51.674;7.824;2024-03-17T14:17:08;3.67;;;2.05;;
48871;SDS011;36154;51.674;7.824;2024-03-17T14:19:34;2.42;;;1.63;;
48871;SDS011;36154;51.674;7.824;2024-03-17T14:21:59;2.20;;;1.52;;
48871;SDS011;36154;51.674;7.824;2024-03-17T14:24:24;1.90;;;1.73;;
48871;SDS011;36154;51.674;7.824;2024-03-17T14:26:50;2.35;;;1.60;;
48871;SDS011;36154;51.674;7.824;2024-03-17T14:29:15;2.53;;;1.58;;
48871;SDS011;36154;51.674;7.824;2024-03-17T14:31:41;3.13;;;1.90;;
48871;SDS011;36154;51.674;7.824;2024-03-17T14:34:09;2.97;;;1.63;;
48871;SDS011;36154;51.674;7.824;2024-03-17T14:36:35;2.97;;;1.60;;
48871;SDS011;36154;51.674;7.824;2024-03-17T14:39:00;2.28;;;1.38;;
48871;SDS011;36154;51.674;7.824;2024-03-17T14:41:31;1.63;;;1.10;;
48871;SDS011;36154;51.674;7.824;2024-03-17T14:43:57;3.10;;;1.20;;
48871;SDS011;36154;51.674;7.824;2024-03-17T14:46:22;1.98;;;0.85;;
48871;SDS011;36154;51.674;7.824;2024-03-17T14:48:48;1.38;;;0.63;;
48871;SDS011;36154;51.674;7.824;2024-03-17T14:51:15;0.70;;;0.70;;
48871;SDS011;36154;51.674;7.824;2024-03-17T14:53:41;0.63;;;0.55;;
48871;SDS011;36154;51.674;7.824;2024-03-17T14:56:15;0.60;;;0.50;;
48871;SDS011;36154;51.674;7.824;2024-03-17T14:58:41;0.45;;;0.45;;
48871;SDS011;36154;51.674;7.824;2024-03-17T15:01:07;0.63;;;0.40;;
48871;SDS011;36154;51.674;7.824;2024-03-17T15:03:34;1.48;;;0.50;;
48871;SDS011;36154;51.674;7.824;2024-03-17T15:05:59;0.43;;;0.43;;
48871;SDS011;36154;51.674;7.824;2024-03-17T15:08:25;1.05;;;0.30;;
48871;SDS011;36154;51.674;7.824;2024-03-17T15:10:50;0.73;;;0.50;;
48871;SDS011;36154;51.674;7.824;2024-03-17T15:13:16;0.50;;;0.50;;
48871;SDS011;36154;51.674;7.824;2024-03-17T15:15:42;0.43;;;0.43;;
48871;SDS011;36154;51.674;7.824;2024-03-17T15:18:09;0.43;;;0.38;;
48871;SDS011;36154;51.674;7.824;2024-03-17T15:20:36;0.30;;;0.30;;
48871;SDS011;36154;51.674;7.824;2024-03-17T15:23:02;0.30;;;0.30;;